sensor_id;sensor_type;location;lat;lon;timestamp;P1;durP1;ratioP1;P2;durP2;ratioP2
4694;SDS011;2361;49.540;8.390;2022-10-16T00:01:39;1.30;;;1.30;;
4694;SDS011;2361;49.540;8.390;2022-10-16T00:04:06;2.50;;;1.50;;
4694;SDS011;2361;49.540;8.390;2022-10-16T00:06:34;1.27;;;1.20;;
4694;SDS011;2361;49.540;8.390;2022-10-16T00:09:01;1.40;;;1.40;;
4694;SDS011;2361;49.540;8.390;2022-10-16T00:11:29;1.37;;;1.33;;
4694;SDS011;2361;49.540;8.390;2022-10-16T00:14:00;1.40;;;1.30;;
4694;SDS011;2361;49.540;8.390;2022-10-16T00:16:29;1.57;;;1.57;;
4694;SDS011;2361;49.540;8.390;2022-10-16T00:18:56;1.80;;;1.70;;
4694;SDS011;2361;49.540;8.390;2022-10-16T00:21:25;1.70;;;1.60;;
4694;SDS011;2361;49.540;8.390;2022-10-16T00:23:55;1.43;;;1.43;;
4694;SDS011;2361;49.540;8.390;2022-10-16T00:26:28;1.40;;;1.40;;
4694;SDS011;2361;49.540;8.390;2022-10-16T00:28:57;1.63;;;1.63;;
4694;SDS011;2361;49.540;8.390;2022-10-16T00:31:25;2.77;;;1.47;;
4694;SDS011;2361;49.540;8.390;2022-10-16T00:33:53;2.10;;;1.90;;
4694;SDS011;2361;49.540;8.390;2022-10-16T00:36:20;1.63;;;1.53;;
4694;SDS011;2361;49.540;8.390;2022-10-16T00:38:53;1.50;;;1.40;;
4694;SDS011;2361;49.540;8.390;2022-10-16T00:41:23;1.30;;;1.30;;
4694;SDS011;2361;49.540;8.390;2022-10-16T00:43:52;2.67;;;1.83;;
4694;SDS011;2361;49.540;8.390;2022-10-16T00:46:38;1.60;;;1.50;;
4694;SDS011;2361;49.540;8.390;2022-10-16T00:49:12;1.70;;;1.57;;
4694;SDS011;2361;49.540;8.390;2022-10-16T00:51:43;1.47;;;1.47;;
4694;SDS011;2361;49.540;8.390;2022-10-16T00:54:15;2.63;;;1.43;;
4694;SDS011;2361;49.540;8.390;2022-10-16T00:56:54;1.80;;;1.70;;
4694;SDS011;2361;49.540;8.390;2022-10-16T00:59:30;3.20;;;1.83;;
4694;SDS011;2361;49.540;8.390;2022-10-16T01:02:09;1.43;;;1.37;;
4694;SDS011;2361;49.540;8.390;2022-10-16T01:04:43;1.40;;;1.37;;
4694;SDS011;2361;49.540;8.390;2022-10-16T01:13:11;1.80;;;1.63;;
4694;SDS011;2361;49.540;8.390;2022-10-16T01:18:37;1.50;;;1.40;;
4694;SDS011;2361;49.540;8.390;2022-10-16T01:23:56;1.70;;;1.60;;
4694;SDS011;2361;49.540;8.390;2022-10-16T01:40:25;1.50;;;1.40;;
4694;SDS011;2361;49.540;8.390;2022-10-16T01:42:59;1.43;;;1.40;;
4694;SDS011;2361;49.540;8.390;2022-10-16T01:45:38;2.03;;;1.43;;
4694;SDS011;2361;49.540;8.390;2022-10-16T01:48:07;3.30;;;1.37;;
4694;SDS011;2361;49.540;8.390;2022-10-16T01:50:38;1.70;;;1.47;;
4694;SDS011;2361;49.540;8.390;2022-10-16T01:53:08;1.90;;;1.70;;
4694;SDS011;2361;49.540;8.390;2022-10-16T01:55:40;2.10;;;1.53;;
4694;SDS011;2361;49.540;8.390;2022-10-16T01:58:11;1.60;;;1.43;;
4694;SDS011;2361;49.540;8.390;2022-10-16T02:00:41;1.40;;;1.40;;
4694;SDS011;2361;49.540;8.390;2022-10-16T02:03:13;1.70;;;1.60;;
4694;SDS011;2361;49.540;8.390;2022-10-16T02:08:21;2.53;;;1.50;;
4694;SDS011;2361;49.540;8.390;2022-10-16T02:10:51;1.77;;;1.67;;
4694;SDS011;2361;49.540;8.390;2022-10-16T02:13:20;1.80;;;1.70;;
4694;SDS011;2361;49.540;8.390;2022-10-16T02:15:52;2.20;;;1.67;;
4694;SDS011;2361;49.540;8.390;2022-10-16T02:18:19;2.20;;;2.00;;
4694;SDS011;2361;49.540;8.390;2022-10-16T02:20:54;1.87;;;1.77;;
4694;SDS011;2361;49.540;8.390;2022-10-16T02:29:47;2.60;;;2.17;;
4694;SDS011;2361;49.540;8.390;2022-10-16T02:32:25;13.00;;;1.80;;
4694;SDS011;2361;49.540;8.390;2022-10-16T02:34:56;1.50;;;1.40;;
4694;SDS011;2361;49.540;8.390;2022-10-16T02:37:25;2.53;;;1.97;;
4694;SDS011;2361;49.540;8.390;2022-10-16T02:39:53;2.40;;;1.93;;
4694;SDS011;2361;49.540;8.390;2022-10-16T02:42:27;1.67;;;1.57;;
4694;SDS011;2361;49.540;8.390;2022-10-16T02:44:59;2.03;;;1.83;;
4694;SDS011;2361;49.540;8.390;2022-10-16T02:47:25;1.63;;;1.50;;
4694;SDS011;2361;49.540;8.390;2022-10-16T02:49:52;1.67;;;1.57;;
4694;SDS011;2361;49.540;8.390;2022-10-16T02:52:19;2.27;;;1.33;;
4694;SDS011;2361;49.540;8.390;2022-10-16T02:54:46;1.47;;;1.47;;
4694;SDS011;2361;49.540;8.390;2022-10-16T02:57:13;1.87;;;1.77;;
4694;SDS011;2361;49.540;8.390;2022-10-16T02:59:40;1.80;;;1.70;;
4694;SDS011;2361;49.540;8.390;2022-10-16T03:02:08;3.73;;;1.37;;
4694;SDS011;2361;49.540;8.390;2022-10-16T03:04:35;1.40;;;1.30;;
4694;SDS011;2361;49.540;8.390;2022-10-16T03:07:03;1.80;;;1.70;;
4694;SDS011;2361;49.540;8.390;2022-10-16T03:09:30;1.50;;;1.40;;
4694;SDS011;2361;49.540;8.390;2022-10-16T03:11:57;1.63;;;1.63;;
4694;SDS011;2361;49.540;8.390;2022-10-16T03:14:24;1.47;;;1.47;;
4694;SDS011;2361;49.540;8.390;2022-10-16T03:16:51;1.60;;;1.60;;
4694;SDS011;2361;49.540;8.390;2022-10-16T03:19:18;1.57;;;1.57;;
4694;SDS011;2361;49.540;8.390;2022-10-16T03:21:45;1.67;;;1.57;;
4694;SDS011;2361;49.540;8.390;2022-10-16T03:24:12;1.30;;;1.30;;
4694;SDS011;2361;49.540;8.390;2022-10-16T03:26:39;4.97;;;1.40;;
4694;SDS011;2361;49.540;8.390;2022-10-16T03:29:06;1.67;;;1.57;;
4694;SDS011;2361;49.540;8.390;2022-10-16T03:31:33;1.60;;;1.50;;
4694;SDS011;2361;49.540;8.390;2022-10-16T03:34:00;6.77;;;1.47;;
4694;SDS011;2361;49.540;8.390;2022-10-16T03:36:27;1.83;;;1.73;;
4694;SDS011;2361;49.540;8.390;2022-10-16T03:38:54;1.30;;;1.20;;
4694;SDS011;2361;49.540;8.390;2022-10-16T03:41:21;1.17;;;1.17;;
4694;SDS011;2361;49.540;8.390;2022-10-16T03:43:48;1.57;;;1.47;;
4694;SDS011;2361;49.540;8.390;2022-10-16T03:46:15;2.07;;;1.53;;
4694;SDS011;2361;49.540;8.390;2022-10-16T03:48:42;1.30;;;1.20;;
4694;SDS011;2361;49.540;8.390;2022-10-16T03:51:09;3.93;;;1.83;;
4694;SDS011;2361;49.540;8.390;2022-10-16T03:53:35;1.97;;;1.87;;
4694;SDS011;2361;49.540;8.390;2022-10-16T03:56:02;1.60;;;1.43;;
4694;SDS011;2361;49.540;8.390;2022-10-16T03:58:29;1.50;;;1.40;;
4694;SDS011;2361;49.540;8.390;2022-10-16T04:00:56;1.70;;;1.60;;
4694;SDS011;2361;49.540;8.390;2022-10-16T04:03:23;1.53;;;1.40;;
4694;SDS011;2361;49.540;8.390;2022-10-16T04:05:50;1.50;;;1.40;;
4694;SDS011;2361;49.540;8.390;2022-10-16T04:08:17;1.57;;;1.50;;
4694;SDS011;2361;49.540;8.390;2022-10-16T04:10:44;4.63;;;1.70;;
4694;SDS011;2361;49.540;8.390;2022-10-16T04:13:11;2.90;;;1.30;;
4694;SDS011;2361;49.540;8.390;2022-10-16T04:15:39;1.27;;;1.27;;
4694;SDS011;2361;49.540;8.390;2022-10-16T04:18:06;1.23;;;1.23;;
4694;SDS011;2361;49.540;8.390;2022-10-16T04:20:33;1.17;;;1.17;;
4694;SDS011;2361;49.540;8.390;2022-10-16T04:23:00;1.40;;;1.30;;
4694;SDS011;2361;49.540;8.390;2022-10-16T04:25:27;2.60;;;1.33;;
4694;SDS011;2361;49.540;8.390;2022-10-16T04:27:54;2.57;;;1.53;;
4694;SDS011;2361;49.540;8.390;2022-10-16T04:30:21;1.60;;;1.50;;
4694;SDS011;2361;49.540;8.390;2022-10-16T04:32:49;1.50;;;1.40;;
4694;SDS011;2361;49.540;8.390;2022-10-16T04:35:18;1.20;;;1.20;;
4694;SDS011;2361;49.540;8.390;2022-10-16T04:37:47;1.53;;;1.47;;
4694;SDS011;2361;49.540;8.390;2022-10-16T04:40:14;1.57;;;1.50;;
4694;SDS011;2361;49.540;8.390;2022-10-16T04:42:41;1.77;;;1.67;;
4694;SDS011;2361;49.540;8.390;2022-10-16T04:45:08;1.93;;;1.37;;
4694;SDS011;2361;49.540;8.390;2022-10-16T04:47:38;1.90;;;1.77;;
4694;SDS011;2361;49.540;8.390;2022-10-16T04:50:05;1.80;;;1.70;;
4694;SDS011;2361;49.540;8.390;2022-10-16T04:52:33;2.10;;;2.00;;
4694;SDS011;2361;49.540;8.390;2022-10-16T04:55:05;1.90;;;1.80;;
4694;SDS011;2361;49.540;8.390;2022-10-16T04:57:32;2.83;;;1.37;;
4694;SDS011;2361;49.540;8.390;2022-10-16T04:59:59;1.90;;;1.80;;
4694;SDS011;2361;49.540;8.390;2022-10-16T05:02:26;1.77;;;1.67;;
4694;SDS011;2361;49.540;8.390;2022-10-16T05:04:53;2.03;;;1.93;;
4694;SDS011;2361;49.540;8.390;2022-10-16T05:07:20;1.60;;;1.50;;
4694;SDS011;2361;49.540;8.390;2022-10-16T05:09:47;1.77;;;1.67;;
4694;SDS011;2361;49.540;8.390;2022-10-16T05:12:14;2.10;;;2.00;;
4694;SDS011;2361;49.540;8.390;2022-10-16T05:14:41;1.47;;;1.47;;
4694;SDS011;2361;49.540;8.390;2022-10-16T05:17:08;1.73;;;1.63;;
4694;SDS011;2361;49.540;8.390;2022-10-16T05:19:35;2.97;;;2.33;;
4694;SDS011;2361;49.540;8.390;2022-10-16T05:22:02;2.40;;;2.20;;
4694;SDS011;2361;49.540;8.390;2022-10-16T05:24:29;2.73;;;2.40;;
4694;SDS011;2361;49.540;8.390;2022-10-16T05:26:56;3.00;;;2.60;;
4694;SDS011;2361;49.540;8.390;2022-10-16T05:29:23;3.10;;;2.90;;
4694;SDS011;2361;49.540;8.390;2022-10-16T05:31:51;3.60;;;2.83;;
4694;SDS011;2361;49.540;8.390;2022-10-16T05:34:20;4.13;;;3.73;;
4694;SDS011;2361;49.540;8.390;2022-10-16T05:36:47;3.70;;;3.17;;
4694;SDS011;2361;49.540;8.390;2022-10-16T05:39:14;6.13;;;3.10;;
4694;SDS011;2361;49.540;8.390;2022-10-16T05:41:42;3.50;;;3.20;;
4694;SDS011;2361;49.540;8.390;2022-10-16T05:44:10;9.20;;;3.20;;
4694;SDS011;2361;49.540;8.390;2022-10-16T05:46:37;5.27;;;2.87;;
4694;SDS011;2361;49.540;8.390;2022-10-16T05:49:04;2.30;;;2.17;;
4694;SDS011;2361;49.540;8.390;2022-10-16T05:51:31;3.23;;;2.97;;
4694;SDS011;2361;49.540;8.390;2022-10-16T05:53:57;2.90;;;2.70;;
4694;SDS011;2361;49.540;8.390;2022-10-16T05:56:24;6.10;;;2.90;;
4694;SDS011;2361;49.540;8.390;2022-10-16T05:58:51;5.33;;;3.00;;
4694;SDS011;2361;49.540;8.390;2022-10-16T06:01:18;3.20;;;2.90;;
4694;SDS011;2361;49.540;8.390;2022-10-16T06:03:47;3.00;;;2.80;;
4694;SDS011;2361;49.540;8.390;2022-10-16T06:06:18;3.17;;;2.90;;
4694;SDS011;2361;49.540;8.390;2022-10-16T06:08:48;4.40;;;3.00;;
4694;SDS011;2361;49.540;8.390;2022-10-16T06:11:17;3.97;;;2.80;;
4694;SDS011;2361;49.540;8.390;2022-10-16T06:13:56;2.80;;;2.47;;
4694;SDS011;2361;49.540;8.390;2022-10-16T06:16:25;6.20;;;2.93;;
4694;SDS011;2361;49.540;8.390;2022-10-16T06:18:53;9.00;;;2.77;;
4694;SDS011;2361;49.540;8.390;2022-10-16T06:21:25;4.63;;;2.77;;
4694;SDS011;2361;49.540;8.390;2022-10-16T06:23:53;2.43;;;2.23;;
4694;SDS011;2361;49.540;8.390;2022-10-16T06:26:23;3.13;;;2.70;;
4694;SDS011;2361;49.540;8.390;2022-10-16T06:28:56;23.30;;;5.60;;
4694;SDS011;2361;49.540;8.390;2022-10-16T06:31:25;4.20;;;3.50;;
4694;SDS011;2361;49.540;8.390;2022-10-16T06:33:55;3.53;;;3.17;;
4694;SDS011;2361;49.540;8.390;2022-10-16T06:36:23;3.93;;;2.70;;
4694;SDS011;2361;49.540;8.390;2022-10-16T06:38:51;2.67;;;2.47;;
4694;SDS011;2361;49.540;8.390;2022-10-16T06:41:19;2.43;;;2.23;;
4694;SDS011;2361;49.540;8.390;2022-10-16T06:43:48;2.57;;;2.37;;
4694;SDS011;2361;49.540;8.390;2022-10-16T06:46:16;2.93;;;2.70;;
4694;SDS011;2361;49.540;8.390;2022-10-16T06:48:46;3.30;;;2.43;;
4694;SDS011;2361;49.540;8.390;2022-10-16T06:51:14;5.13;;;2.33;;
4694;SDS011;2361;49.540;8.390;2022-10-16T06:53:47;2.87;;;2.60;;
4694;SDS011;2361;49.540;8.390;2022-10-16T06:56:31;3.40;;;2.80;;
4694;SDS011;2361;49.540;8.390;2022-10-16T06:58:59;6.53;;;2.63;;
4694;SDS011;2361;49.540;8.390;2022-10-16T07:01:27;2.50;;;2.30;;
4694;SDS011;2361;49.540;8.390;2022-10-16T07:03:54;2.20;;;2.10;;
4694;SDS011;2361;49.540;8.390;2022-10-16T07:06:22;2.30;;;2.20;;
4694;SDS011;2361;49.540;8.390;2022-10-16T07:08:51;6.60;;;2.50;;
4694;SDS011;2361;49.540;8.390;2022-10-16T07:11:19;2.20;;;2.10;;
4694;SDS011;2361;49.540;8.390;2022-10-16T07:13:49;2.60;;;2.40;;
4694;SDS011;2361;49.540;8.390;2022-10-16T07:16:21;3.47;;;2.60;;
4694;SDS011;2361;49.540;8.390;2022-10-16T07:18:54;2.30;;;2.10;;
4694;SDS011;2361;49.540;8.390;2022-10-16T07:21:25;2.77;;;2.23;;
4694;SDS011;2361;49.540;8.390;2022-10-16T07:23:58;2.80;;;2.50;;
4694;SDS011;2361;49.540;8.390;2022-10-16T07:26:27;8.50;;;3.47;;
4694;SDS011;2361;49.540;8.390;2022-10-16T07:28:57;3.37;;;3.13;;
4694;SDS011;2361;49.540;8.390;2022-10-16T07:31:24;2.70;;;2.50;;
4694;SDS011;2361;49.540;8.390;2022-10-16T07:33:52;2.60;;;2.40;;
4694;SDS011;2361;49.540;8.390;2022-10-16T07:36:20;2.30;;;2.17;;
4694;SDS011;2361;49.540;8.390;2022-10-16T07:38:48;2.37;;;2.23;;
4694;SDS011;2361;49.540;8.390;2022-10-16T07:41:18;2.60;;;2.20;;
4694;SDS011;2361;49.540;8.390;2022-10-16T07:43:46;3.20;;;2.10;;
4694;SDS011;2361;49.540;8.390;2022-10-16T07:46:15;2.57;;;2.20;;
4694;SDS011;2361;49.540;8.390;2022-10-16T07:48:43;1.90;;;1.77;;
4694;SDS011;2361;49.540;8.390;2022-10-16T07:51:14;3.47;;;2.97;;
4694;SDS011;2361;49.540;8.390;2022-10-16T07:53:44;3.77;;;2.57;;
4694;SDS011;2361;49.540;8.390;2022-10-16T07:56:11;3.60;;;2.27;;
4694;SDS011;2361;49.540;8.390;2022-10-16T07:58:40;1.63;;;1.53;;
4694;SDS011;2361;49.540;8.390;2022-10-16T08:01:08;2.10;;;2.00;;
4694;SDS011;2361;49.540;8.390;2022-10-16T08:03:37;3.70;;;2.17;;
4694;SDS011;2361;49.540;8.390;2022-10-16T08:06:04;2.37;;;2.00;;
4694;SDS011;2361;49.540;8.390;2022-10-16T08:08:31;1.97;;;1.87;;
4694;SDS011;2361;49.540;8.390;2022-10-16T08:10:58;2.13;;;2.00;;
4694;SDS011;2361;49.540;8.390;2022-10-16T08:13:25;1.70;;;1.60;;
4694;SDS011;2361;49.540;8.390;2022-10-16T08:15:53;1.33;;;1.30;;
4694;SDS011;2361;49.540;8.390;2022-10-16T08:18:21;3.17;;;2.43;;
4694;SDS011;2361;49.540;8.390;2022-10-16T08:20:54;3.30;;;2.30;;
4694;SDS011;2361;49.540;8.390;2022-10-16T08:23:26;1.80;;;1.70;;
4694;SDS011;2361;49.540;8.390;2022-10-16T08:25:54;2.50;;;2.07;;
4694;SDS011;2361;49.540;8.390;2022-10-16T08:28:27;2.40;;;1.93;;
4694;SDS011;2361;49.540;8.390;2022-10-16T08:30:54;3.80;;;2.30;;
4694;SDS011;2361;49.540;8.390;2022-10-16T08:33:22;2.97;;;2.43;;
4694;SDS011;2361;49.540;8.390;2022-10-16T08:35:50;6.03;;;2.33;;
4694;SDS011;2361;49.540;8.390;2022-10-16T08:38:20;3.87;;;2.50;;
4694;SDS011;2361;49.540;8.390;2022-10-16T08:40:47;2.47;;;2.30;;
4694;SDS011;2361;49.540;8.390;2022-10-16T08:49:30;1.80;;;1.67;;
4694;SDS011;2361;49.540;8.390;2022-10-16T08:51:57;3.70;;;1.70;;
4694;SDS011;2361;49.540;8.390;2022-10-16T08:54:29;4.37;;;2.40;;
4694;SDS011;2361;49.540;8.390;2022-10-16T08:57:08;2.57;;;2.17;;
4694;SDS011;2361;49.540;8.390;2022-10-16T08:59:43;3.00;;;2.23;;
4694;SDS011;2361;49.540;8.390;2022-10-16T09:05:02;2.47;;;2.23;;
4694;SDS011;2361;49.540;8.390;2022-10-16T09:08:09;12.87;;;7.70;;
4694;SDS011;2361;49.540;8.390;2022-10-16T09:11:09;4.87;;;2.87;;
4694;SDS011;2361;49.540;8.390;2022-10-16T09:14:00;5.83;;;2.97;;
4694;SDS011;2361;49.540;8.390;2022-10-16T09:16:57;2.60;;;2.50;;
4694;SDS011;2361;49.540;8.390;2022-10-16T09:19:40;2.80;;;2.50;;
4694;SDS011;2361;49.540;8.390;2022-10-16T09:22:17;3.57;;;2.30;;
4694;SDS011;2361;49.540;8.390;2022-10-16T09:24:55;2.60;;;2.17;;
4694;SDS011;2361;49.540;8.390;2022-10-16T09:27:37;2.93;;;2.63;;
4694;SDS011;2361;49.540;8.390;2022-10-16T09:30:11;2.40;;;2.20;;
4694;SDS011;2361;49.540;8.390;2022-10-16T09:32:42;2.77;;;2.57;;
4694;SDS011;2361;49.540;8.390;2022-10-16T09:35:20;2.43;;;2.30;;
4694;SDS011;2361;49.540;8.390;2022-10-16T09:37:58;3.27;;;2.80;;
4694;SDS011;2361;49.540;8.390;2022-10-16T09:40:29;3.30;;;3.00;;
4694;SDS011;2361;49.540;8.390;2022-10-16T09:45:42;3.10;;;2.77;;
4694;SDS011;2361;49.540;8.390;2022-10-16T09:48:21;2.47;;;2.27;;
4694;SDS011;2361;49.540;8.390;2022-10-16T09:51:01;3.00;;;2.80;;
4694;SDS011;2361;49.540;8.390;2022-10-16T09:53:44;2.70;;;2.50;;
4694;SDS011;2361;49.540;8.390;2022-10-16T09:56:20;2.27;;;2.17;;
4694;SDS011;2361;49.540;8.390;2022-10-16T09:58:57;2.40;;;2.20;;
4694;SDS011;2361;49.540;8.390;2022-10-16T10:01:29;2.60;;;2.40;;
4694;SDS011;2361;49.540;8.390;2022-10-16T10:04:04;5.90;;;3.80;;
4694;SDS011;2361;49.540;8.390;2022-10-16T10:06:35;6.47;;;3.87;;
4694;SDS011;2361;49.540;8.390;2022-10-16T10:09:15;3.20;;;2.30;;
4694;SDS011;2361;49.540;8.390;2022-10-16T10:11:59;2.20;;;2.10;;
4694;SDS011;2361;49.540;8.390;2022-10-16T10:14:37;2.30;;;2.20;;
4694;SDS011;2361;49.540;8.390;2022-10-16T10:17:12;2.10;;;2.00;;
4694;SDS011;2361;49.540;8.390;2022-10-16T10:19:56;1.93;;;1.80;;
4694;SDS011;2361;49.540;8.390;2022-10-16T10:22:30;2.37;;;2.27;;
4694;SDS011;2361;49.540;8.390;2022-10-16T10:25:14;2.13;;;1.93;;
4694;SDS011;2361;49.540;8.390;2022-10-16T10:33:56;2.27;;;2.17;;
4694;SDS011;2361;49.540;8.390;2022-10-16T10:36:44;4.60;;;2.17;;
4694;SDS011;2361;49.540;8.390;2022-10-16T10:39:35;8.63;;;6.40;;
4694;SDS011;2361;49.540;8.390;2022-10-16T10:45:45;4.03;;;2.73;;
4694;SDS011;2361;49.540;8.390;2022-10-16T10:51:12;4.17;;;2.70;;
4694;SDS011;2361;49.540;8.390;2022-10-16T10:54:05;4.37;;;3.20;;
4694;SDS011;2361;49.540;8.390;2022-10-16T10:57:02;4.07;;;3.40;;
4694;SDS011;2361;49.540;8.390;2022-10-16T11:03:06;5.30;;;3.37;;
4694;SDS011;2361;49.540;8.390;2022-10-16T11:05:57;4.47;;;3.00;;
4694;SDS011;2361;49.540;8.390;2022-10-16T11:08:38;3.43;;;3.13;;
4694;SDS011;2361;49.540;8.390;2022-10-16T11:11:14;7.67;;;3.97;;
4694;SDS011;2361;49.540;8.390;2022-10-16T11:16:51;5.00;;;3.17;;
4694;SDS011;2361;49.540;8.390;2022-10-16T11:19:48;2.57;;;2.47;;
4694;SDS011;2361;49.540;8.390;2022-10-16T11:22:39;6.30;;;2.93;;
4694;SDS011;2361;49.540;8.390;2022-10-16T11:25:24;4.03;;;2.73;;
4694;SDS011;2361;49.540;8.390;2022-10-16T11:30:49;1.70;;;1.60;;
4694;SDS011;2361;49.540;8.390;2022-10-16T11:33:33;2.10;;;2.00;;
4694;SDS011;2361;49.540;8.390;2022-10-16T11:36:20;1.93;;;1.83;;
4694;SDS011;2361;49.540;8.390;2022-10-16T11:56:18;2.80;;;2.20;;
4694;SDS011;2361;49.540;8.390;2022-10-16T12:01:38;2.40;;;2.10;;
4694;SDS011;2361;49.540;8.390;2022-10-16T12:04:26;2.07;;;1.90;;
4694;SDS011;2361;49.540;8.390;2022-10-16T12:07:07;2.03;;;1.87;;
4694;SDS011;2361;49.540;8.390;2022-10-16T12:09:39;2.43;;;2.33;;
4694;SDS011;2361;49.540;8.390;2022-10-16T12:12:23;3.80;;;2.30;;
4694;SDS011;2361;49.540;8.390;2022-10-16T12:15:00;2.23;;;2.13;;
4694;SDS011;2361;49.540;8.390;2022-10-16T12:17:47;2.10;;;2.00;;
4694;SDS011;2361;49.540;8.390;2022-10-16T12:23:01;2.77;;;2.57;;
4694;SDS011;2361;49.540;8.390;2022-10-16T12:25:34;3.43;;;2.40;;
4694;SDS011;2361;49.540;8.390;2022-10-16T12:28:06;3.10;;;2.90;;
4694;SDS011;2361;49.540;8.390;2022-10-16T12:30:55;6.13;;;4.83;;
4694;SDS011;2361;49.540;8.390;2022-10-16T12:33:39;6.10;;;3.17;;
4694;SDS011;2361;49.540;8.390;2022-10-16T12:36:16;2.00;;;1.90;;
4694;SDS011;2361;49.540;8.390;2022-10-16T12:39:00;2.10;;;1.90;;
4694;SDS011;2361;49.540;8.390;2022-10-16T12:41:28;3.70;;;2.40;;
4694;SDS011;2361;49.540;8.390;2022-10-16T12:44:01;2.40;;;2.30;;
4694;SDS011;2361;49.540;8.390;2022-10-16T12:51:42;2.80;;;2.60;;
4694;SDS011;2361;49.540;8.390;2022-10-16T13:02:11;2.70;;;1.77;;
4694;SDS011;2361;49.540;8.390;2022-10-16T13:07:41;5.03;;;2.30;;
4694;SDS011;2361;49.540;8.390;2022-10-16T13:12:59;2.23;;;2.03;;
4694;SDS011;2361;49.540;8.390;2022-10-16T13:16:04;3.00;;;2.77;;
4694;SDS011;2361;49.540;8.390;2022-10-16T13:27:51;2.50;;;2.30;;
4694;SDS011;2361;49.540;8.390;2022-10-16T13:30:26;2.57;;;2.37;;
4694;SDS011;2361;49.540;8.390;2022-10-16T13:35:49;3.37;;;3.13;;
4694;SDS011;2361;49.540;8.390;2022-10-16T13:38:20;2.47;;;2.37;;
4694;SDS011;2361;49.540;8.390;2022-10-16T13:43:33;2.27;;;2.17;;
4694;SDS011;2361;49.540;8.390;2022-10-16T13:46:10;3.47;;;2.40;;
4694;SDS011;2361;49.540;8.390;2022-10-16T13:48:43;10.40;;;6.50;;
4694;SDS011;2361;49.540;8.390;2022-10-16T13:51:15;5.40;;;4.03;;
4694;SDS011;2361;49.540;8.390;2022-10-16T13:53:45;4.57;;;2.50;;
4694;SDS011;2361;49.540;8.390;2022-10-16T13:56:13;2.43;;;2.23;;
4694;SDS011;2361;49.540;8.390;2022-10-16T13:58:43;11.03;;;2.70;;
4694;SDS011;2361;49.540;8.390;2022-10-16T14:01:17;2.23;;;2.13;;
4694;SDS011;2361;49.540;8.390;2022-10-16T14:03:52;2.60;;;2.40;;
4694;SDS011;2361;49.540;8.390;2022-10-16T14:06:20;2.27;;;2.17;;
4694;SDS011;2361;49.540;8.390;2022-10-16T14:08:53;2.50;;;2.40;;
4694;SDS011;2361;49.540;8.390;2022-10-16T14:11:45;2.40;;;2.30;;
4694;SDS011;2361;49.540;8.390;2022-10-16T14:14:18;2.87;;;2.40;;
4694;SDS011;2361;49.540;8.390;2022-10-16T14:16:46;5.93;;;2.53;;
4694;SDS011;2361;49.540;8.390;2022-10-16T14:19:24;2.93;;;2.60;;
4694;SDS011;2361;49.540;8.390;2022-10-16T14:21:53;3.17;;;2.50;;
4694;SDS011;2361;49.540;8.390;2022-10-16T14:24:31;3.27;;;2.97;;
4694;SDS011;2361;49.540;8.390;2022-10-16T14:27:01;4.83;;;2.60;;
4694;SDS011;2361;49.540;8.390;2022-10-16T14:29:29;2.40;;;2.30;;
4694;SDS011;2361;49.540;8.390;2022-10-16T14:32:05;2.33;;;2.23;;
4694;SDS011;2361;49.540;8.390;2022-10-16T14:34:52;2.70;;;2.50;;
4694;SDS011;2361;49.540;8.390;2022-10-16T14:37:22;2.20;;;2.10;;
4694;SDS011;2361;49.540;8.390;2022-10-16T14:39:55;2.57;;;2.37;;
4694;SDS011;2361;49.540;8.390;2022-10-16T14:42:29;2.47;;;2.37;;
4694;SDS011;2361;49.540;8.390;2022-10-16T14:44:57;2.20;;;2.10;;
4694;SDS011;2361;49.540;8.390;2022-10-16T14:47:24;3.60;;;2.40;;
4694;SDS011;2361;49.540;8.390;2022-10-16T14:49:53;2.67;;;2.50;;
4694;SDS011;2361;49.540;8.390;2022-10-16T14:52:22;2.90;;;2.70;;
4694;SDS011;2361;49.540;8.390;2022-10-16T14:54:49;2.60;;;2.40;;
4694;SDS011;2361;49.540;8.390;2022-10-16T14:57:17;2.37;;;2.17;;
4694;SDS011;2361;49.540;8.390;2022-10-16T14:59:48;2.93;;;1.90;;
4694;SDS011;2361;49.540;8.390;2022-10-16T15:02:19;2.53;;;2.43;;
4694;SDS011;2361;49.540;8.390;2022-10-16T15:04:47;3.10;;;2.20;;
4694;SDS011;2361;49.540;8.390;2022-10-16T15:07:15;4.57;;;2.60;;
4694;SDS011;2361;49.540;8.390;2022-10-16T15:09:42;4.77;;;2.70;;
4694;SDS011;2361;49.540;8.390;2022-10-16T15:12:13;2.40;;;2.27;;
4694;SDS011;2361;49.540;8.390;2022-10-16T15:14:40;3.60;;;2.23;;
4694;SDS011;2361;49.540;8.390;2022-10-16T15:17:11;3.90;;;3.30;;
4694;SDS011;2361;49.540;8.390;2022-10-16T15:19:38;2.37;;;2.27;;
4694;SDS011;2361;49.540;8.390;2022-10-16T15:22:05;2.47;;;2.27;;
4694;SDS011;2361;49.540;8.390;2022-10-16T15:24:32;5.60;;;2.40;;
4694;SDS011;2361;49.540;8.390;2022-10-16T15:26:59;6.03;;;2.83;;
4694;SDS011;2361;49.540;8.390;2022-10-16T15:29:26;4.50;;;2.93;;
4694;SDS011;2361;49.540;8.390;2022-10-16T15:31:53;3.57;;;2.77;;
4694;SDS011;2361;49.540;8.390;2022-10-16T15:34:20;3.67;;;3.07;;
4694;SDS011;2361;49.540;8.390;2022-10-16T15:36:47;3.97;;;3.00;;
4694;SDS011;2361;49.540;8.390;2022-10-16T15:39:15;5.90;;;2.57;;
4694;SDS011;2361;49.540;8.390;2022-10-16T15:41:47;3.20;;;1.90;;
4694;SDS011;2361;49.540;8.390;2022-10-16T15:44:20;2.10;;;2.00;;
4694;SDS011;2361;49.540;8.390;2022-10-16T15:46:49;3.17;;;2.60;;
4694;SDS011;2361;49.540;8.390;2022-10-16T15:49:16;2.30;;;2.17;;
4694;SDS011;2361;49.540;8.390;2022-10-16T15:51:43;2.77;;;2.40;;
4694;SDS011;2361;49.540;8.390;2022-10-16T15:54:10;3.90;;;2.80;;
4694;SDS011;2361;49.540;8.390;2022-10-16T15:56:37;3.07;;;2.73;;
4694;SDS011;2361;49.540;8.390;2022-10-16T15:59:04;3.27;;;2.83;;
4694;SDS011;2361;49.540;8.390;2022-10-16T16:01:33;4.83;;;3.10;;
4694;SDS011;2361;49.540;8.390;2022-10-16T16:04:01;3.63;;;2.23;;
4694;SDS011;2361;49.540;8.390;2022-10-16T16:06:36;2.93;;;2.67;;
4694;SDS011;2361;49.540;8.390;2022-10-16T16:09:05;2.97;;;2.77;;
4694;SDS011;2361;49.540;8.390;2022-10-16T16:11:32;2.60;;;2.37;;
4694;SDS011;2361;49.540;8.390;2022-10-16T16:14:03;2.70;;;2.57;;
4694;SDS011;2361;49.540;8.390;2022-10-16T16:16:37;6.10;;;2.70;;
4694;SDS011;2361;49.540;8.390;2022-10-16T16:19:04;4.60;;;2.90;;
4694;SDS011;2361;49.540;8.390;2022-10-16T16:21:36;3.40;;;3.10;;
4694;SDS011;2361;49.540;8.390;2022-10-16T16:24:04;3.40;;;3.10;;
4694;SDS011;2361;49.540;8.390;2022-10-16T16:26:34;5.90;;;3.60;;
4694;SDS011;2361;49.540;8.390;2022-10-16T16:29:05;3.50;;;3.20;;
4694;SDS011;2361;49.540;8.390;2022-10-16T16:31:32;5.00;;;3.43;;
4694;SDS011;2361;49.540;8.390;2022-10-16T16:34:00;5.17;;;3.37;;
4694;SDS011;2361;49.540;8.390;2022-10-16T16:36:27;6.27;;;3.63;;
4694;SDS011;2361;49.540;8.390;2022-10-16T16:38:54;4.63;;;3.53;;
4694;SDS011;2361;49.540;8.390;2022-10-16T16:41:23;6.93;;;4.20;;
4694;SDS011;2361;49.540;8.390;2022-10-16T16:43:53;3.87;;;3.13;;
4694;SDS011;2361;49.540;8.390;2022-10-16T16:46:21;5.67;;;3.53;;
4694;SDS011;2361;49.540;8.390;2022-10-16T16:48:48;4.67;;;3.20;;
4694;SDS011;2361;49.540;8.390;2022-10-16T16:51:16;6.10;;;3.60;;
4694;SDS011;2361;49.540;8.390;2022-10-16T16:53:46;4.23;;;2.83;;
4694;SDS011;2361;49.540;8.390;2022-10-16T16:56:18;3.73;;;3.43;;
4694;SDS011;2361;49.540;8.390;2022-10-16T16:58:47;6.03;;;2.70;;
4694;SDS011;2361;49.540;8.390;2022-10-16T17:01:16;2.93;;;2.73;;
4694;SDS011;2361;49.540;8.390;2022-10-16T17:03:45;5.53;;;3.53;;
4694;SDS011;2361;49.540;8.390;2022-10-16T17:06:15;4.70;;;3.20;;
4694;SDS011;2361;49.540;8.390;2022-10-16T17:08:45;7.20;;;3.00;;
4694;SDS011;2361;49.540;8.390;2022-10-16T17:11:16;7.10;;;2.80;;
4694;SDS011;2361;49.540;8.390;2022-10-16T17:13:47;3.50;;;2.20;;
4694;SDS011;2361;49.540;8.390;2022-10-16T17:16:17;13.93;;;3.30;;
4694;SDS011;2361;49.540;8.390;2022-10-16T17:18:45;3.33;;;3.03;;
4694;SDS011;2361;49.540;8.390;2022-10-16T17:21:12;2.83;;;2.60;;
4694;SDS011;2361;49.540;8.390;2022-10-16T17:23:39;4.50;;;3.00;;
4694;SDS011;2361;49.540;8.390;2022-10-16T17:26:06;3.07;;;2.77;;
4694;SDS011;2361;49.540;8.390;2022-10-16T17:28:40;3.57;;;3.27;;
4694;SDS011;2361;49.540;8.390;2022-10-16T17:31:27;5.67;;;2.73;;
4694;SDS011;2361;49.540;8.390;2022-10-16T17:34:00;4.17;;;2.83;;
4694;SDS011;2361;49.540;8.390;2022-10-16T17:36:30;3.90;;;3.50;;
4694;SDS011;2361;49.540;8.390;2022-10-16T17:39:00;2.70;;;2.50;;
4694;SDS011;2361;49.540;8.390;2022-10-16T17:41:34;3.60;;;3.23;;
4694;SDS011;2361;49.540;8.390;2022-10-16T17:44:02;7.57;;;4.70;;
4694;SDS011;2361;49.540;8.390;2022-10-16T17:46:31;7.00;;;4.77;;